createdAt,value
2018-07-23T00:00:00.178Z,0
2018-07-23T00:01:00.432Z,0
2018-07-23T00:02:00.446Z,0
2018-07-23T00:03:00.444Z,0
2018-07-23T00:04:00.172Z,0
2018-07-23T00:05:00.415Z,0
2018-07-23T00:06:00.164Z,0
2018-07-23T00:07:00.168Z,0
2018-07-23T00:08:00.413Z,0
2018-07-23T00:08:59.900Z,0
2018-07-23T00:10:00.148Z,0
2018-07-23T00:11:00.401Z,0
2018-07-23T00:12:00.403Z,0
2018-07-23T00:13:00.397Z,0
2018-07-23T00:14:00.139Z,0
2018-07-23T00:14:59.883Z,0
2018-07-23T00:16:00.383Z,0
2018-07-23T00:17:00.384Z,0
2018-07-23T00:18:00.386Z,0
2018-07-23T00:19:00.125Z,0
2018-07-23T00:19:59.868Z,0
2018-07-23T00:21:00.123Z,0
2018-07-23T00:22:00.374Z,0
2018-07-23T00:23:00.370Z,0
2018-07-23T00:24:00.371Z,0
2018-07-23T00:24:59.861Z,0
2018-07-23T00:26:00.150Z,0
2018-07-23T00:27:00.357Z,0
2018-07-23T00:29:00.098Z,0
2018-07-23T00:30:00.367Z,0
2018-07-23T00:31:00.346Z,0
2018-07-23T00:32:00.357Z,0
2018-07-23T00:33:00.341Z,0
2018-07-23T00:34:00.346Z,0
2018-07-23T00:36:00.339Z,0
2018-07-23T00:37:00.082Z,0
2018-07-23T00:38:00.324Z,0
2018-07-23T00:39:00.325Z,0
2018-07-23T00:40:00.326Z,0
2018-07-23T00:41:00.326Z,0
2018-07-23T00:42:00.079Z,0
2018-07-23T00:43:00.312Z,0
2018-07-23T00:44:00.310Z,0
2018-07-23T00:45:00.307Z,0
2018-07-23T00:46:00.056Z,0
2018-07-23T00:47:00.303Z,0
2018-07-23T00:48:00.303Z,0
2018-07-23T00:49:00.308Z,0
2018-07-23T00:50:00.302Z,0
2018-07-23T00:51:00.297Z,0
2018-07-23T00:52:00.295Z,0
2018-07-23T00:53:00.290Z,0
2018-07-23T00:54:00.288Z,0
2018-07-23T00:55:00.281Z,0
2018-07-23T00:56:00.034Z,0
2018-07-23T00:56:59.773Z,0
2018-07-23T00:58:00.279Z,0
2018-07-23T00:59:00.270Z,0
2018-07-23T01:00:00.264Z,0
2018-07-23T01:01:00.262Z,0
2018-07-23T01:02:00.261Z,0
2018-07-23T01:03:00.262Z,0
2018-07-23T01:04:00.257Z,0
2018-07-23T01:04:59.752Z,0
2018-07-23T01:06:00.252Z,0
2018-07-23T01:07:00.256Z,0
2018-07-23T01:08:00.245Z,0
2018-07-23T01:09:00.245Z,0
2018-07-23T01:09:59.990Z,0
2018-07-23T01:11:00.236Z,0
2018-07-23T01:12:00.238Z,0
2018-07-23T01:13:00.232Z,0
2018-07-23T01:13:59.979Z,0
2018-07-23T01:14:59.977Z,0
2018-07-23T01:15:59.972Z,0
2018-07-23T01:17:00.224Z,0
2018-07-23T01:18:00.226Z,0
2018-07-23T01:19:00.225Z,0
2018-07-23T01:19:59.974Z,0
2018-07-23T01:20:59.972Z,0
2018-07-23T01:21:59.959Z,0
2018-07-23T01:23:00.206Z,0
2018-07-23T01:24:00.204Z,0
2018-07-23T01:25:00.203Z,0
2018-07-23T01:25:59.946Z,0
2018-07-23T01:27:00.194Z,0
2018-07-23T01:27:59.943Z,0
2018-07-23T01:28:59.943Z,0
2018-07-23T01:30:00.186Z,0
2018-07-23T01:31:00.184Z,0
2018-07-23T01:32:00.182Z,0
2018-07-23T01:33:00.178Z,0
2018-07-23T01:34:00.175Z,0
2018-07-23T01:34:59.922Z,0
2018-07-23T01:36:00.176Z,0
2018-07-23T01:37:00.179Z,0
2018-07-23T01:38:00.166Z,0
2018-07-23T01:39:00.164Z,0
2018-07-23T01:40:00.163Z,0
2018-07-23T01:40:59.656Z,0
2018-07-23T01:41:59.903Z,0
2018-07-23T01:43:00.163Z,0
2018-07-23T01:43:59.900Z,0
2018-07-23T01:44:59.896Z,0
2018-07-23T01:46:00.151Z,0
2018-07-23T01:47:00.142Z,0
2018-07-23T01:47:59.889Z,0
2018-07-23T01:49:00.144Z,0
2018-07-23T01:50:00.132Z,0
2018-07-23T01:51:00.129Z,0
2018-07-23T01:52:00.131Z,0
2018-07-23T01:53:00.138Z,0
2018-07-23T01:53:59.371Z,0
2018-07-23T01:54:59.870Z,0
2018-07-23T01:55:59.871Z,0
2018-07-23T01:57:00.113Z,0
2018-07-23T01:58:00.116Z,0
2018-07-23T01:59:00.110Z,0
2018-07-23T02:00:00.109Z,0
2018-07-23T02:01:00.106Z,0
2018-07-23T02:01:59.854Z,0
2018-07-23T02:03:00.099Z,0
2018-07-23T02:04:00.100Z,0
2018-07-23T02:05:00.103Z,0
2018-07-23T02:05:59.838Z,0
2018-07-23T02:07:00.098Z,0
2018-07-23T02:08:00.094Z,0
2018-07-23T02:08:59.834Z,0
2018-07-23T02:10:00.077Z,4
2018-07-23T02:10:59.824Z,4
2018-07-23T02:12:00.070Z,4
2018-07-23T02:13:00.077Z,4
2018-07-23T02:13:59.815Z,4
2018-07-23T02:15:00.073Z,4
2018-07-23T02:16:00.060Z,0
2018-07-23T02:17:00.060Z,0
2018-07-23T02:17:59.801Z,0
2018-07-23T02:18:59.555Z,0
2018-07-23T02:20:00.052Z,0
2018-07-23T02:21:00.050Z,0
2018-07-23T02:22:00.050Z,0
2018-07-23T02:22:59.536Z,0
2018-07-23T02:24:00.036Z,0
2018-07-23T02:25:00.041Z,4
2018-07-23T02:25:59.779Z,4
2018-07-23T02:26:59.793Z,4
2018-07-23T02:28:00.027Z,0
2018-07-23T02:28:59.521Z,0
2018-07-23T02:30:00.046Z,4
2018-07-23T02:31:00.027Z,4
2018-07-23T02:31:59.766Z,4
2018-07-23T02:33:00.014Z,4
2018-07-23T02:34:00.008Z,4
2018-07-23T02:34:59.754Z,8
2018-07-23T02:36:00.006Z,8
2018-07-23T02:37:00.090Z,8
2018-07-23T02:37:59.741Z,8
2018-07-23T02:38:59.999Z,8
2018-07-23T02:39:59.488Z,8
2018-07-23T02:41:00.010Z,12
2018-07-23T02:41:59.984Z,16
2018-07-23T02:42:59.732Z,16
2018-07-23T02:43:59.731Z,16
2018-07-23T02:44:59.973Z,20
2018-07-23T02:45:59.719Z,20
2018-07-23T02:46:59.718Z,24
2018-07-23T02:47:59.714Z,32
2018-07-23T02:48:59.715Z,36
2018-07-23T02:49:59.975Z,40
2018-07-23T02:50:59.960Z,40
2018-07-23T02:51:59.961Z,48
2018-07-23T02:52:59.948Z,52
2018-07-23T02:53:59.954Z,56
2018-07-23T02:54:59.689Z,64
2018-07-23T02:55:59.959Z,72
2018-07-23T02:56:59.932Z,80
2018-07-23T02:57:59.681Z,92
2018-07-23T02:58:59.926Z,100
2018-07-23T02:59:59.935Z,112
2018-07-23T03:00:59.919Z,124
2018-07-23T03:01:59.924Z,136
2018-07-23T03:02:59.924Z,148
2018-07-23T03:03:59.909Z,164
2018-07-23T03:04:59.911Z,176
2018-07-23T03:05:59.902Z,192
2018-07-23T03:06:59.902Z,208
2018-07-23T03:07:59.902Z,228
2018-07-23T03:08:59.905Z,248
2018-07-23T03:09:59.901Z,268
2018-07-23T03:10:59.887Z,292
2018-07-23T03:11:59.643Z,312
2018-07-23T03:12:59.636Z,336
2018-07-23T03:13:59.871Z,360
2018-07-23T03:14:59.869Z,388
2018-07-23T03:15:59.882Z,416
2018-07-23T03:16:59.880Z,448
2018-07-23T03:17:59.916Z,476
2018-07-23T03:18:59.874Z,508
2018-07-23T03:19:59.608Z,544
2018-07-23T03:20:59.640Z,580
2018-07-23T03:22:00.217Z,616
2018-07-23T03:22:59.849Z,660
2018-07-23T03:23:59.848Z,700
2018-07-23T03:24:59.991Z,748
2018-07-23T03:25:59.828Z,792
2018-07-23T03:26:59.833Z,844
2018-07-23T03:27:59.823Z,896
2018-07-23T03:28:59.815Z,948
2018-07-23T03:29:59.823Z,1008
2018-07-23T03:30:59.563Z,1068
2018-07-23T03:31:59.563Z,1128
2018-07-23T03:32:59.550Z,1192
2018-07-23T03:33:59.801Z,1260
2018-07-23T03:34:59.797Z,1328
2018-07-23T03:35:59.790Z,1396
2018-07-23T03:36:59.544Z,1468
2018-07-23T03:37:59.790Z,1540
2018-07-23T03:38:59.784Z,1620
2018-07-23T03:39:59.795Z,1704
2018-07-23T03:40:59.529Z,1788
2018-07-23T03:41:59.779Z,1876
2018-07-23T03:42:59.771Z,1964
2018-07-23T03:43:59.770Z,2060
2018-07-23T03:44:59.769Z,2164
2018-07-23T03:45:59.514Z,2268
2018-07-23T03:46:59.751Z,2380
2018-07-23T03:47:59.504Z,2496
2018-07-23T03:48:59.749Z,2608
2018-07-23T03:49:59.500Z,2716
2018-07-23T03:50:59.486Z,2824
2018-07-23T03:51:59.743Z,2924
2018-07-23T03:52:59.734Z,3032
2018-07-23T03:53:59.476Z,3140
2018-07-23T03:54:59.484Z,3252
2018-07-23T03:55:59.219Z,3372
2018-07-23T03:56:59.722Z,3488
2018-07-23T03:57:59.720Z,3592
2018-07-23T03:58:59.711Z,3696
2018-07-23T03:59:59.722Z,3808
2018-07-23T04:00:59.709Z,3924
2018-07-23T04:01:59.702Z,4028
2018-07-23T04:02:59.701Z,4124
2018-07-23T04:03:59.446Z,4200
2018-07-23T04:04:59.441Z,4280
2018-07-23T04:05:59.690Z,4360
2018-07-23T04:06:59.686Z,4444
2018-07-23T04:07:59.685Z,4536
2018-07-23T04:08:59.683Z,4608
2018-07-23T04:09:59.920Z,4680
2018-07-23T04:10:59.949Z,4764
2018-07-23T04:11:59.675Z,4836
2018-07-23T04:12:59.424Z,4920
2018-07-23T04:13:59.677Z,4956
2018-07-23T04:14:59.673Z,5008
2018-07-23T04:15:59.666Z,5080
2018-07-23T04:16:59.414Z,5160
2018-07-23T04:17:59.674Z,5236
2018-07-23T04:18:59.414Z,5304
2018-07-23T04:19:59.664Z,5412
2018-07-23T04:20:59.658Z,5512
2018-07-23T04:21:59.669Z,5588
2018-07-23T04:22:59.657Z,5740
2018-07-23T04:23:59.651Z,5852
2018-07-23T04:24:59.401Z,5980
2018-07-23T04:25:59.653Z,6188
2018-07-23T04:26:59.654Z,6360
2018-07-23T04:27:59.649Z,6588
2018-07-23T04:28:59.651Z,6784
2018-07-23T04:29:59.392Z,6928
2018-07-23T04:30:59.654Z,7168
2018-07-23T04:31:59.645Z,7416
2018-07-23T04:32:59.140Z,7700
2018-07-23T04:33:59.392Z,7976
2018-07-23T04:34:59.394Z,8216
2018-07-23T04:35:59.644Z,8584
2018-07-23T04:36:59.394Z,8804
2018-07-23T04:37:59.958Z,9120
2018-07-23T04:38:59.653Z,9384
2018-07-23T04:39:59.643Z,9556
2018-07-23T04:40:59.644Z,9804
2018-07-23T04:41:59.650Z,9972
2018-07-23T04:42:59.647Z,10196
2018-07-23T04:43:59.405Z,10600
2018-07-23T04:44:59.402Z,10924
2018-07-23T04:45:59.654Z,11020
2018-07-23T04:46:59.406Z,11196
2018-07-23T04:47:59.664Z,11528
2018-07-23T04:48:59.150Z,11684
2018-07-23T04:49:59.656Z,11876
2018-07-23T04:50:59.406Z,12188
2018-07-23T04:51:59.684Z,12288
2018-07-23T04:52:59.666Z,12576
2018-07-23T04:53:59.664Z,12696
2018-07-23T04:54:59.165Z,12744
2018-07-23T04:55:59.671Z,13252
2018-07-23T04:56:59.638Z,13756
2018-07-23T04:57:59.691Z,13792
2018-07-23T04:58:59.433Z,14208
2018-07-23T04:59:59.690Z,14784
2018-07-23T05:00:59.689Z,14496
2018-07-23T05:01:59.697Z,14720
2018-07-23T05:02:59.697Z,15648
2018-07-23T05:03:59.707Z,15488
2018-07-23T05:04:59.452Z,15680
2018-07-23T05:05:59.723Z,16128
2018-07-23T05:06:59.714Z,16000
2018-07-23T05:07:59.722Z,16736
2018-07-23T05:09:00.031Z,17216
2018-07-23T05:09:59.730Z,16416
2018-07-23T05:10:59.737Z,17184
2018-07-23T05:11:59.742Z,18848
2018-07-23T05:12:59.740Z,18848
2018-07-23T05:13:59.747Z,18112
2018-07-23T05:14:59.500Z,18368
2018-07-23T05:15:59.397Z,18816
2018-07-23T05:16:59.518Z,19552
2018-07-23T05:17:59.771Z,20160
2018-07-23T05:18:59.525Z,19584
2018-07-23T05:19:59.785Z,18880
2018-07-23T05:20:59.799Z,18976
2018-07-23T05:21:59.794Z,19968
2018-07-23T05:22:59.819Z,20576
2018-07-23T05:24:00.074Z,19936
2018-07-23T05:24:59.821Z,20384
2018-07-23T05:25:59.577Z,22016
2018-07-23T05:26:59.856Z,22016
2018-07-23T05:27:59.842Z,20960
2018-07-23T05:28:59.595Z,21376
2018-07-23T05:29:59.852Z,23392
2018-07-23T05:30:59.860Z,24800
2018-07-23T05:32:00.010Z,24352
2018-07-23T05:32:59.875Z,23616
2018-07-23T05:33:59.887Z,24224
2018-07-23T05:34:59.897Z,24128
2018-07-23T05:35:59.656Z,23104
2018-07-23T05:36:59.663Z,24000
2018-07-23T05:37:59.925Z,25728
2018-07-23T05:38:59.972Z,25824
2018-07-23T05:39:59.696Z,25088
2018-07-23T05:40:59.695Z,26560
2018-07-23T05:41:59.954Z,28224
2018-07-23T05:42:59.972Z,27936
2018-07-23T05:43:59.989Z,26048
2018-07-23T05:44:59.981Z,26880
2018-07-23T05:45:59.994Z,29952
2018-07-23T05:47:00.001Z,31936
2018-07-23T05:47:59.758Z,29888
2018-07-23T05:49:00.017Z,26720
2018-07-23T05:50:00.027Z,27072
2018-07-23T05:50:59.803Z,30848
2018-07-23T05:52:00.048Z,33856
2018-07-23T05:53:00.063Z,32960
2018-07-23T05:54:00.072Z,29056
2018-07-23T05:55:00.080Z,28512
2018-07-23T05:55:59.836Z,32256
2018-07-23T05:56:59.598Z,34400
2018-07-23T05:58:00.119Z,31808
2018-07-23T05:59:00.248Z,29152
2018-07-23T05:59:59.636Z,31232
2018-07-23T06:00:59.900Z,36064
2018-07-23T06:02:00.154Z,38048
2018-07-23T06:03:00.167Z,33984
2018-07-23T06:04:00.179Z,31488
2018-07-23T06:04:59.683Z,34336
2018-07-23T06:06:00.201Z,39648
2018-07-23T06:07:01.057Z,39104
2018-07-23T06:07:59.969Z,33280
2018-07-23T06:09:00.230Z,30880
2018-07-23T06:10:00.241Z,34752
2018-07-23T06:11:00.252Z,40064
2018-07-23T06:12:00.311Z,39840
2018-07-23T06:13:00.080Z,37120
2018-07-23T06:14:00.036Z,36800
2018-07-23T06:15:00.313Z,38336
2018-07-23T06:16:00.310Z,37312
2018-07-23T06:17:00.085Z,36352
2018-07-23T06:18:00.337Z,38016
2018-07-23T06:19:00.097Z,38464
2018-07-23T06:20:00.376Z,37536
2018-07-23T06:21:00.373Z,35680
2018-07-23T06:22:00.138Z,35296
2018-07-23T06:23:00.403Z,36672
2018-07-23T06:23:59.916Z,36416
2018-07-23T06:25:00.219Z,35488
2018-07-23T06:26:00.185Z,34464
2018-07-23T06:27:00.456Z,33568
2018-07-23T06:28:00.476Z,33568
2018-07-23T06:29:00.473Z,33920
2018-07-23T06:30:00.639Z,34080
2018-07-23T06:31:00.260Z,34816
2018-07-23T06:32:00.265Z,34720
2018-07-23T06:33:00.542Z,33152
2018-07-23T06:34:00.775Z,30912
2018-07-23T06:35:00.303Z,26048
2018-07-23T06:36:00.588Z,22752
2018-07-23T06:37:00.582Z,25440
2018-07-23T06:38:00.604Z,33792
2018-07-23T06:39:01.424Z,42528
2018-07-23T06:40:00.627Z,48480
2018-07-23T06:41:00.644Z,49312
2018-07-23T06:45:00.708Z,39680
2018-07-23T06:46:00.729Z,46272
2018-07-23T06:47:00.486Z,54144
2018-07-23T06:48:00.751Z,58752
2018-07-23T06:49:00.510Z,62336
2018-07-23T06:50:00.788Z,63840
2018-07-23T06:51:00.294Z,64160
2018-07-23T06:52:00.568Z,63456
2018-07-23T06:53:00.830Z,59936
2018-07-23T06:54:00.965Z,57472
2018-07-23T06:55:00.875Z,57632
2018-07-23T06:56:00.626Z,64256
2018-07-23T06:57:00.387Z,71488
2018-07-23T06:58:00.921Z,75104
2018-07-23T06:59:00.928Z,73632
2018-07-23T07:00:00.692Z,71360
2018-07-23T07:01:00.712Z,68384
2018-07-23T07:02:00.727Z,67232
2018-07-23T07:03:01.001Z,65376
2018-07-23T07:04:01.022Z,64800
2018-07-23T07:05:01.034Z,64352
2018-07-23T07:06:01.049Z,63328
2018-07-23T07:07:00.815Z,62304
2018-07-23T07:08:01.094Z,62336
2018-07-23T07:09:01.103Z,63008
2018-07-23T07:10:00.871Z,66656
2018-07-23T07:11:01.547Z,69568
2018-07-23T07:12:01.191Z,71872
2018-07-23T07:13:01.193Z,51488
2018-07-23T07:14:01.189Z,51328
2018-07-23T07:15:01.207Z,52288
2018-07-23T07:16:00.991Z,53152
2018-07-23T07:17:00.749Z,51456
2018-07-23T07:18:01.270Z,51264
2018-07-23T07:19:01.540Z,50432
2018-07-23T07:20:01.558Z,48896
2018-07-23T07:21:01.318Z,46528
2018-07-23T07:22:01.336Z,47392
2018-07-23T07:23:01.359Z,46688
2018-07-23T07:24:01.120Z,46592
2018-07-23T07:25:01.395Z,49344
2018-07-23T07:26:01.453Z,53216
2018-07-23T07:27:01.173Z,54752
2018-07-23T07:28:01.445Z,53504
2018-07-23T07:29:01.216Z,50688
2018-07-23T07:30:01.500Z,43840
2018-07-23T07:31:01.489Z,35008
2018-07-23T07:32:01.538Z,28640
2018-07-23T07:33:01.526Z,23776
2018-07-23T07:34:01.554Z,19232
2018-07-23T07:35:01.686Z,15968
2018-07-23T07:36:01.615Z,17088
2018-07-23T07:37:01.596Z,21216
2018-07-23T07:38:01.896Z,23072
2018-07-23T07:39:01.635Z,23360
2018-07-23T07:40:01.419Z,24224
2018-07-23T07:41:01.664Z,25344
2018-07-23T07:42:01.682Z,26080
2018-07-23T07:43:01.200Z,26624
2018-07-23T07:44:01.720Z,26080
2018-07-23T07:45:01.724Z,25728
2018-07-23T07:46:01.513Z,25440
2018-07-23T07:47:01.513Z,26272
2018-07-23T07:48:01.526Z,26688
2018-07-23T07:49:01.795Z,26912
2018-07-23T07:50:01.810Z,26368
2018-07-23T07:51:01.583Z,27808
2018-07-23T07:52:01.588Z,31328
2018-07-23T07:53:01.373Z,36448
2018-07-23T07:54:01.622Z,41120
2018-07-23T07:55:01.886Z,44192
2018-07-23T07:56:01.902Z,44672
2018-07-23T07:57:01.924Z,42592
2018-07-23T07:58:01.739Z,38816
2018-07-23T07:59:01.960Z,38976
2018-07-23T08:00:01.988Z,41952
2018-07-23T08:01:01.738Z,45056
2018-07-23T08:02:01.498Z,44480
2018-07-23T08:03:02.031Z,46368
2018-07-23T08:04:02.033Z,50016
2018-07-23T08:05:01.821Z,51488
2018-07-23T08:06:01.813Z,50272
2018-07-23T08:07:01.859Z,52096
2018-07-23T08:08:01.840Z,56768
2018-07-23T08:09:01.617Z,63680
2018-07-23T08:10:02.145Z,68416
2018-07-23T08:11:01.894Z,64736
2018-07-23T08:12:01.912Z,56384
2018-07-23T08:13:01.940Z,54144
2018-07-23T08:14:02.182Z,58560
2018-07-23T08:15:01.946Z,61952
2018-07-23T08:16:02.422Z,61088
2018-07-23T08:17:02.233Z,63936
2018-07-23T08:18:02.056Z,70784
2018-07-23T08:19:02.005Z,78880
2018-07-23T08:20:02.299Z,81696
2018-07-23T08:21:02.056Z,73024
2018-07-23T08:22:02.318Z,62880
2018-07-23T08:23:02.340Z,61088
2018-07-23T08:24:02.088Z,66816
2018-07-23T08:25:02.413Z,73184
2018-07-23T08:26:02.365Z,77376
2018-07-23T08:27:02.380Z,75936
2018-07-23T08:28:02.657Z,74912
2018-07-23T08:29:02.160Z,74688
2018-07-23T08:30:01.920Z,76352
2018-07-23T08:31:01.937Z,76608
2018-07-23T08:32:03.344Z,76064
2018-07-23T08:33:01.970Z,79616
2018-07-23T08:34:02.504Z,77984
2018-07-23T08:35:02.514Z,72736
2018-07-23T08:36:02.514Z,70880
2018-07-23T08:37:02.598Z,75552
2018-07-23T08:38:02.553Z,81664
2018-07-23T08:39:02.309Z,79488
2018-07-23T08:40:02.578Z,77120
2018-07-23T08:41:02.652Z,71840
2018-07-23T08:42:02.406Z,69376
2018-07-23T08:43:02.820Z,73504
2018-07-23T08:44:02.644Z,78624
2018-07-23T08:45:02.913Z,81440
2018-07-23T08:46:02.677Z,82240
2018-07-23T08:47:02.685Z,81824
2018-07-23T08:48:02.698Z,83296
2018-07-23T08:49:02.462Z,88416
2018-07-23T08:50:02.724Z,90720
2018-07-23T08:51:02.734Z,80288
2018-07-23T08:52:02.517Z,69536
2018-07-23T08:53:02.777Z,62752
2018-07-23T08:54:02.809Z,67520
2018-07-23T08:55:02.306Z,77952
2018-07-23T08:56:02.866Z,72448
2018-07-23T08:57:02.837Z,36352
2018-07-23T08:58:02.584Z,8088
2018-07-23T08:59:02.348Z,6488
2018-07-23T09:00:02.882Z,6352
2018-07-23T09:01:02.888Z,6332
2018-07-23T09:02:02.896Z,6316
2018-07-23T09:03:02.903Z,6324
2018-07-23T09:04:03.323Z,6336
2018-07-23T09:06:02.935Z,6216
2018-07-23T09:07:02.692Z,6184
2018-07-23T09:08:02.725Z,6184
2018-07-23T09:09:03.005Z,6148
2018-07-23T09:10:02.972Z,6144
2018-07-23T09:11:02.740Z,6140
2018-07-23T09:12:03.012Z,6132
2018-07-23T09:13:03.006Z,6136
2018-07-23T09:14:03.006Z,6108
2018-07-23T09:15:03.020Z,6080
2018-07-23T09:16:02.772Z,6016
2018-07-23T09:17:03.032Z,5964
2018-07-23T09:18:03.052Z,5936
2018-07-23T09:19:03.056Z,5892
2018-07-23T09:20:03.070Z,5876
2018-07-23T09:21:03.068Z,5856
2018-07-23T09:22:03.106Z,5792
2018-07-23T09:23:03.329Z,5728
2018-07-23T09:24:02.577Z,5680
2018-07-23T09:25:03.082Z,5628
2018-07-23T09:26:03.094Z,5616
2018-07-23T09:27:03.118Z,5604
2018-07-23T09:28:02.857Z,5584
2018-07-23T09:29:02.874Z,5564
2018-07-23T09:30:03.127Z,5560
2018-07-23T09:31:03.010Z,5552
2018-07-23T09:32:03.323Z,5536
2018-07-23T09:33:03.128Z,5504
2018-07-23T09:34:03.133Z,5484
2018-07-23T09:35:02.651Z,5496
2018-07-23T09:36:02.640Z,5524
2018-07-23T09:37:02.912Z,5532
2018-07-23T09:38:03.148Z,5524
2018-07-23T09:39:03.158Z,5520
2018-07-23T09:40:03.166Z,5484
2018-07-23T09:41:02.919Z,5468
2018-07-23T09:42:02.911Z,5456
2018-07-23T09:43:03.169Z,5412
2018-07-23T09:44:03.178Z,5360
2018-07-23T09:45:03.179Z,5332
2018-07-23T09:46:03.179Z,5292
2018-07-23T09:47:03.228Z,5244
2018-07-23T09:48:03.212Z,5216
2018-07-23T09:49:03.194Z,5208
2018-07-23T09:50:03.193Z,5196
2018-07-23T09:51:02.947Z,5188
2018-07-23T09:52:03.220Z,5188
2018-07-23T09:53:03.224Z,5192
2018-07-23T09:54:03.216Z,5192
2018-07-23T09:55:03.215Z,5184
2018-07-23T09:56:03.221Z,5180
2018-07-23T09:57:03.235Z,5176
2018-07-23T09:58:03.223Z,5144
2018-07-23T09:59:03.232Z,5104
2018-07-23T10:00:02.725Z,5076
2018-07-23T10:01:02.979Z,5048
2018-07-23T10:02:02.998Z,5012
2018-07-23T10:03:03.645Z,4972
2018-07-23T10:04:03.263Z,4944
2018-07-23T10:05:03.287Z,4952
2018-07-23T10:06:03.255Z,4932
2018-07-23T10:07:03.024Z,4908
2018-07-23T10:08:03.015Z,4884
2018-07-23T10:09:02.783Z,4876
2018-07-23T10:10:03.262Z,4864
2018-07-23T10:11:03.196Z,4852
2018-07-23T10:12:03.286Z,4836
2018-07-23T10:13:03.021Z,4832
2018-07-23T10:14:03.038Z,4816
2018-07-23T10:15:03.023Z,4796
2018-07-23T10:16:03.026Z,4764
2018-07-23T10:17:03.284Z,4752
2018-07-23T10:18:03.040Z,5432
2018-07-23T10:19:02.783Z,5728
2018-07-23T10:20:03.291Z,5712
2018-07-23T10:21:03.047Z,5700
2018-07-23T10:22:02.794Z,5688
2018-07-23T10:23:03.302Z,5688
2018-07-23T10:24:03.302Z,5680
2018-07-23T10:25:03.319Z,5668
2018-07-23T10:26:03.085Z,5652
2018-07-23T10:27:03.065Z,5644
2018-07-23T10:28:03.314Z,5620
2018-07-23T10:29:03.316Z,5592
2018-07-23T10:30:03.335Z,5568
2018-07-23T10:31:03.332Z,5556
2018-07-23T10:32:03.388Z,5544
2018-07-23T10:33:03.328Z,5520
2018-07-23T10:34:03.336Z,5500
2018-07-23T10:35:03.107Z,5476
2018-07-23T10:36:03.343Z,5460
2018-07-23T10:37:03.095Z,5456
2018-07-23T10:38:03.366Z,5460
2018-07-23T10:39:03.354Z,5472
2018-07-23T10:40:03.357Z,5484
2018-07-23T10:41:03.145Z,5476
2018-07-23T10:42:03.104Z,5472
2018-07-23T10:43:03.387Z,5472
2018-07-23T10:44:03.116Z,5460
2018-07-23T10:45:03.125Z,5436
2018-07-23T10:46:03.371Z,5408
2018-07-23T10:47:03.138Z,5396
2018-07-23T10:48:03.403Z,5392
2018-07-23T10:49:03.162Z,5396
2018-07-23T10:50:03.135Z,5400
2018-07-23T10:51:03.387Z,5404
2018-07-23T10:52:03.397Z,5412
2018-07-23T10:53:03.140Z,5396
2018-07-23T10:54:03.444Z,5360
2018-07-23T10:55:03.144Z,5312
2018-07-23T10:56:03.396Z,5296
2018-07-23T10:57:03.443Z,5316
2018-07-23T10:58:03.407Z,5328
2018-07-23T10:59:03.158Z,5320
2018-07-23T11:00:03.418Z,5304
2018-07-23T11:01:03.425Z,5292
2018-07-23T11:02:03.428Z,5288
2018-07-23T11:03:03.427Z,5288
2018-07-23T11:04:03.425Z,5284
2018-07-23T11:05:03.426Z,5276
2018-07-23T11:06:03.436Z,5268
2018-07-23T11:07:03.437Z,5244
2018-07-23T11:08:02.928Z,5228
2018-07-23T11:09:03.442Z,5208
2018-07-23T11:10:03.478Z,5184
2018-07-23T11:11:03.441Z,5152
2018-07-23T11:12:03.200Z,5148
2018-07-23T11:13:03.447Z,5136
2018-07-23T11:14:03.454Z,5132
2018-07-23T11:15:03.457Z,5132
2018-07-23T11:16:03.202Z,5124
2018-07-23T11:17:02.961Z,5112
2018-07-23T11:18:03.468Z,5104
2018-07-23T11:19:03.472Z,5096
2018-07-23T11:20:03.214Z,5088
2018-07-23T11:21:03.471Z,5092
2018-07-23T11:22:03.489Z,5100
2018-07-23T11:23:03.482Z,5104
2018-07-23T11:24:03.670Z,5112
2018-07-23T11:25:38.221Z,5112
2018-07-23T11:26:03.487Z,5116
2018-07-23T11:27:03.766Z,5124
2018-07-23T11:28:03.498Z,5116
2018-07-23T11:29:03.495Z,5096
2018-07-23T11:30:03.502Z,5072
2018-07-23T11:31:03.512Z,5044
2018-07-23T11:32:03.385Z,5012
2018-07-23T11:33:03.252Z,4980
2018-07-23T11:34:03.523Z,4972
2018-07-23T11:35:03.519Z,4968
2018-07-23T11:36:03.513Z,4972
2018-07-23T11:37:03.269Z,4968
2018-07-23T11:38:03.284Z,4956
2018-07-23T11:39:03.531Z,4944
2018-07-23T11:40:03.524Z,4920
2018-07-23T11:41:03.482Z,4896
2018-07-23T11:42:03.529Z,4876
2018-07-23T11:43:03.027Z,4864
2018-07-23T11:44:03.543Z,4864
2018-07-23T11:45:03.554Z,4864
2018-07-23T11:46:03.569Z,4860
2018-07-23T11:47:03.555Z,4864
2018-07-23T11:48:03.556Z,4864
2018-07-23T11:49:03.297Z,4864
2018-07-23T11:50:03.789Z,4868
2018-07-23T11:51:03.572Z,4872
2018-07-23T11:52:03.329Z,4872
2018-07-23T11:53:03.313Z,4868
2018-07-23T11:54:03.570Z,4860
2018-07-23T11:55:03.564Z,4852
2018-07-23T11:56:03.564Z,4840
2018-07-23T11:57:03.941Z,4824
2018-07-23T11:58:03.320Z,4808
2018-07-23T11:59:03.354Z,4792
2018-07-23T12:00:03.578Z,4788
2018-07-23T12:01:03.330Z,4768
2018-07-23T12:02:03.330Z,4744
2018-07-23T12:03:03.329Z,4724
2018-07-23T12:04:03.585Z,4704
2018-07-23T12:05:03.344Z,4696
2018-07-23T12:06:03.593Z,4696
2018-07-23T12:07:03.090Z,4692
2018-07-23T12:08:03.343Z,4688
2018-07-23T12:09:03.598Z,4692
2018-07-23T12:10:03.354Z,4700
2018-07-23T12:11:03.615Z,4692
2018-07-23T12:12:03.706Z,4684
2018-07-23T12:13:03.358Z,4680
2018-07-23T12:14:03.642Z,4664
2018-07-23T12:15:03.368Z,4656
2018-07-23T12:16:03.365Z,4644
2018-07-23T12:17:03.386Z,4652
2018-07-23T12:18:03.382Z,4660
2018-07-23T12:19:03.382Z,4668
2018-07-23T12:20:03.640Z,4672
2018-07-23T12:21:03.651Z,4672
2018-07-23T12:22:03.640Z,4664
2018-07-23T12:23:03.638Z,4656
2018-07-23T12:24:03.428Z,4656
2018-07-23T12:25:03.408Z,4656
2018-07-23T12:26:03.561Z,4648
2018-07-23T12:27:03.654Z,4644
2018-07-23T12:28:03.662Z,4644
2018-07-23T12:29:03.660Z,4644
2018-07-23T12:30:03.917Z,4648
2018-07-23T12:31:03.167Z,4648
2018-07-23T12:32:03.672Z,4636
2018-07-23T12:33:03.675Z,4620
2018-07-23T12:34:03.424Z,4608
2018-07-23T12:35:03.183Z,4596
2018-07-23T12:36:03.719Z,4592
2018-07-23T12:37:03.686Z,4584
2018-07-23T12:38:03.182Z,4580
2018-07-23T12:39:03.691Z,4584
2018-07-23T12:40:04.119Z,4604
2018-07-23T12:41:03.444Z,4628
2018-07-23T12:42:03.444Z,4652
2018-07-23T12:43:03.698Z,4648
2018-07-23T12:44:03.447Z,4624
2018-07-23T12:45:03.467Z,4608
2018-07-23T12:46:03.474Z,4596
2018-07-23T12:47:03.831Z,4596
2018-07-23T12:48:03.707Z,4596
2018-07-23T12:49:03.465Z,4596
2018-07-23T12:50:03.743Z,4608
2018-07-23T12:51:03.464Z,4620
2018-07-23T12:52:03.724Z,4620
2018-07-23T12:53:03.751Z,4624
2018-07-23T12:54:03.485Z,4620
2018-07-23T12:55:03.784Z,4616
2018-07-23T12:56:03.743Z,4620
2018-07-23T12:57:03.768Z,4628
2018-07-23T12:58:03.504Z,4644
2018-07-23T12:59:03.508Z,4664
2018-07-23T13:00:04.066Z,4664
2018-07-23T13:01:04.010Z,4664
2018-07-23T13:02:03.708Z,4668
2018-07-23T13:03:03.507Z,4664
2018-07-23T13:04:03.752Z,4656
2018-07-23T13:05:03.765Z,4640
2018-07-23T13:06:03.775Z,4628
2018-07-23T13:07:03.508Z,4620
2018-07-23T13:08:03.820Z,4624
2018-07-23T13:09:03.787Z,4632
2018-07-23T13:10:03.785Z,4636
2018-07-23T13:11:03.774Z,4640
2018-07-23T13:12:03.788Z,4640
2018-07-23T13:13:03.527Z,4644
2018-07-23T13:14:03.532Z,4656
2018-07-23T13:15:03.715Z,4668
2018-07-23T13:16:03.796Z,4684
2018-07-23T13:17:03.793Z,4692
2018-07-23T13:18:03.547Z,4696
2018-07-23T13:19:03.582Z,4700
2018-07-23T13:20:03.549Z,4704
2018-07-23T13:21:03.569Z,4704
2018-07-23T13:22:03.818Z,4696
2018-07-23T13:23:03.557Z,4688
2018-07-23T13:24:03.847Z,4684
2018-07-23T13:25:03.816Z,4684
2018-07-23T13:26:03.838Z,4684
2018-07-23T13:27:03.575Z,4692
2018-07-23T13:28:03.591Z,4684
2018-07-23T13:29:03.588Z,4684
2018-07-23T13:30:03.334Z,4688
2018-07-23T13:31:03.584Z,4680
2018-07-23T13:32:03.837Z,4664
2018-07-23T13:33:03.587Z,4648
2018-07-23T13:34:03.588Z,4632